Grand Canyon Natl Park, Arizona
Current Conditions -  °F | °C
As of 7:54 AM on Thursday 23 Oct 2014 (Local Time) from KGCN Reporting Station
Smoke Smoke  
Wind Chill: 40°   Ceiling: Unl
Heat Index: 40°   Visibility: 10mi
Dew Point: 29°   Wind: 0mph
Humidity: 65%   Direction: NA
Pressure: 30.32"   Gusts: NA
Location:  36.2°N, 112.07°W
Report Text: KGCN 231454Z 00000KT 10SM FU CLR 04/M02 A3032 RMK AO2 SLP241 T00441017 51006
Loading
Personal Weather Stations






























Interactive Weather Map
Tropical Storm Tracking
New forecast layout! Learn more

10-Day Weather Forecast

Advertisements
Track Severe Weather on mobile